createdAt,value
2023-02-03T00:01:18.438Z,6.95
2023-02-03T00:03:44.922Z,11.00
2023-02-03T00:06:11.623Z,9.00
2023-02-03T00:08:38.807Z,6.50
2023-02-03T00:11:05.917Z,5.68
2023-02-03T00:13:32.651Z,5.97
2023-02-03T00:16:01.342Z,5.10
2023-02-03T00:18:28.333Z,13.13
2023-02-03T00:20:54.951Z,10.40
2023-02-03T00:23:21.489Z,9.60
2023-02-03T00:25:48.094Z,8.50
2023-02-03T00:28:14.692Z,6.43
2023-02-03T00:30:41.461Z,6.28
2023-02-03T00:33:08.206Z,6.03
2023-02-03T00:35:38.263Z,7.97
2023-02-03T00:38:04.850Z,5.53
2023-02-03T00:40:31.436Z,5.40
2023-02-03T00:42:58.015Z,5.78
2023-02-03T00:45:24.552Z,6.97
2023-02-03T00:47:51.270Z,6.75
2023-02-03T00:50:17.860Z,8.23
2023-02-03T00:52:44.435Z,5.78
2023-02-03T00:55:10.977Z,5.47
2023-02-03T00:57:37.478Z,8.10
2023-02-03T01:00:05.187Z,6.47
2023-02-03T01:02:31.775Z,6.75
2023-02-03T01:04:58.557Z,8.40
2023-02-03T01:07:25.064Z,7.55
2023-02-03T01:09:51.733Z,6.63
2023-02-03T01:12:18.233Z,4.75
2023-02-03T01:14:44.781Z,3.42
2023-02-03T01:17:11.316Z,6.45
2023-02-03T01:19:37.805Z,4.97
2023-02-03T01:22:04.363Z,6.78
2023-02-03T01:24:31.295Z,5.43
2023-02-03T01:26:57.909Z,6.32
2023-02-03T01:29:24.554Z,5.57
2023-02-03T01:31:51.344Z,5.22
2023-02-03T01:34:18.416Z,5.85
2023-02-03T01:36:46.739Z,4.50
2023-02-03T01:39:13.532Z,6.27
2023-02-03T01:41:41.445Z,6.13
2023-02-03T01:44:32.953Z,7.25
2023-02-03T01:46:59.625Z,4.72
2023-02-03T01:49:31.598Z,4.30
2023-02-03T01:51:58.128Z,5.18
2023-02-03T01:54:31.311Z,6.18
2023-02-03T01:57:02.928Z,3.22
2023-02-03T01:59:31.068Z,4.20
2023-02-03T02:01:58.810Z,5.38
2023-02-03T02:04:29.703Z,6.22
2023-02-03T02:06:59.414Z,5.05
2023-02-03T02:09:27.568Z,8.60
2023-02-03T02:11:54.120Z,3.83
2023-02-03T02:14:20.703Z,6.97
2023-02-03T02:17:05.219Z,3.35
2023-02-03T02:19:49.633Z,3.67
2023-02-03T02:22:29.902Z,3.45
2023-02-03T02:25:27.084Z,4.15
2023-02-03T02:28:24.247Z,4.40
2023-02-03T02:31:02.608Z,4.05
2023-02-03T02:33:51.938Z,6.18
2023-02-03T02:39:00.723Z,5.07
2023-02-03T02:41:39.698Z,4.85
2023-02-03T02:44:33.429Z,3.58
2023-02-03T02:47:06.224Z,4.03
2023-02-03T02:49:42.626Z,4.28
2023-02-03T02:52:11.566Z,4.18
2023-02-03T02:54:42.122Z,3.40
2023-02-03T02:57:11.519Z,2.15
2023-02-03T03:02:04.499Z,2.70
2023-02-03T03:04:34.448Z,2.10
2023-02-03T03:07:16.519Z,2.97
2023-02-03T03:09:50.486Z,3.70
2023-02-03T03:12:22.372Z,2.42
2023-02-03T03:14:54.725Z,2.85
2023-02-03T03:17:32.334Z,2.83
2023-02-03T03:20:07.818Z,3.05
2023-02-03T03:22:40.058Z,3.13
2023-02-03T03:25:14.536Z,1.70
2023-02-03T03:27:44.645Z,2.25
2023-02-03T03:30:23.372Z,3.33
2023-02-03T03:32:50.553Z,2.08
2023-02-03T03:35:17.439Z,3.33
2023-02-03T03:37:56.608Z,2.78
2023-02-03T03:40:32.867Z,2.03
2023-02-03T03:43:12.859Z,1.10
2023-02-03T03:45:55.728Z,2.30
2023-02-03T03:48:30.065Z,1.73
2023-02-03T03:51:02.642Z,1.50
2023-02-03T03:53:32.237Z,3.75
2023-02-03T03:56:02.141Z,1.65
2023-02-03T03:58:31.357Z,1.98
2023-02-03T04:01:02.634Z,3.13
2023-02-03T04:03:37.608Z,1.83
2023-02-03T04:06:04.766Z,3.42
2023-02-03T04:08:31.274Z,2.90
2023-02-03T04:10:57.827Z,2.58
2023-02-03T04:13:24.364Z,6.18
2023-02-03T04:15:50.942Z,1.55
2023-02-03T04:18:17.645Z,1.98
2023-02-03T04:20:44.211Z,2.78
2023-02-03T04:23:10.753Z,1.88
2023-02-03T04:25:37.308Z,1.70
2023-02-03T04:28:04.282Z,4.68
2023-02-03T04:30:30.845Z,2.38
2023-02-03T04:32:57.640Z,3.55
2023-02-03T04:35:24.863Z,2.10
2023-02-03T04:37:51.467Z,4.38
2023-02-03T04:40:18.195Z,8.00
2023-02-03T04:42:44.740Z,4.53
2023-02-03T04:45:12.445Z,3.70
2023-02-03T04:47:39.912Z,4.72
2023-02-03T04:50:06.909Z,2.92
2023-02-03T04:52:33.495Z,6.18
2023-02-03T04:55:00.144Z,5.50
2023-02-03T04:57:26.766Z,3.38
2023-02-03T04:59:53.330Z,3.03
2023-02-03T05:02:19.859Z,4.63
2023-02-03T05:04:46.453Z,2.28
2023-02-03T05:07:13.031Z,3.95
2023-02-03T05:09:39.580Z,4.40
2023-02-03T05:12:06.438Z,3.95
2023-02-03T05:14:32.985Z,6.88
2023-02-03T05:16:59.505Z,3.45
2023-02-03T05:19:26.028Z,4.22
2023-02-03T05:21:52.555Z,4.25
2023-02-03T05:24:19.082Z,3.75
2023-02-03T05:26:45.580Z,4.38
2023-02-03T05:29:12.164Z,5.47
2023-02-03T05:31:38.869Z,6.18
2023-02-03T05:34:05.588Z,5.35
2023-02-03T05:36:32.205Z,6.45
2023-02-03T05:38:58.942Z,5.90
2023-02-03T05:41:44.292Z,3.63
2023-02-03T05:44:10.839Z,4.15
2023-02-03T05:46:37.333Z,11.80
2023-02-03T05:49:03.928Z,6.68
2023-02-03T05:51:30.543Z,3.75
2023-02-03T05:53:57.126Z,4.65
2023-02-03T05:56:23.787Z,4.60
2023-02-03T05:58:53.171Z,4.70
2023-02-03T06:01:20.073Z,4.40
2023-02-03T06:03:48.126Z,3.50
2023-02-03T06:06:15.536Z,2.40
2023-02-03T06:08:42.564Z,2.95
2023-02-03T06:11:09.486Z,3.85
2023-02-03T06:13:36.063Z,4.95
2023-02-03T06:16:04.290Z,3.20
2023-02-03T06:18:30.937Z,10.02
2023-02-03T06:20:57.460Z,3.70
2023-02-03T06:23:24.051Z,3.95
2023-02-03T06:25:51.898Z,4.95
2023-02-03T06:28:18.900Z,3.92
2023-02-03T06:30:45.675Z,3.05
2023-02-03T06:33:12.287Z,2.88
2023-02-03T06:35:38.810Z,4.68
2023-02-03T06:38:05.632Z,4.35
2023-02-03T06:40:32.167Z,3.55
2023-02-03T06:42:58.757Z,2.88
2023-02-03T06:45:25.699Z,4.35
2023-02-03T06:47:52.481Z,3.08
2023-02-03T06:50:19.316Z,3.70
2023-02-03T06:52:46.072Z,5.75
2023-02-03T06:55:12.609Z,3.47
2023-02-03T06:57:47.049Z,3.30
2023-02-03T07:00:18.637Z,3.83
2023-02-03T07:02:46.451Z,6.15
2023-02-03T07:05:13.213Z,3.03
2023-02-03T07:07:39.888Z,8.00
2023-02-03T07:10:07.152Z,4.38
2023-02-03T07:12:33.891Z,6.80
2023-02-03T07:15:00.521Z,2.72
2023-02-03T07:17:27.043Z,4.50
2023-02-03T07:19:53.714Z,10.10
2023-02-03T07:22:20.446Z,7.78
2023-02-03T07:24:46.983Z,6.43
2023-02-03T07:27:13.827Z,3.28
2023-02-03T07:29:40.363Z,4.13
2023-02-03T07:32:07.052Z,4.18
2023-02-03T07:34:33.762Z,6.72
2023-02-03T07:37:00.283Z,4.35
2023-02-03T07:39:26.844Z,2.67
2023-02-03T07:41:53.364Z,4.65
2023-02-03T07:44:19.902Z,2.85
2023-02-03T07:46:46.552Z,3.70
2023-02-03T07:49:14.147Z,6.28
2023-02-03T07:51:41.164Z,6.70
2023-02-03T07:54:07.832Z,2.80
2023-02-03T07:56:34.425Z,4.63
2023-02-03T07:59:00.995Z,4.22
2023-02-03T08:01:28.194Z,5.13
2023-02-03T08:03:55.355Z,5.70
2023-02-03T08:06:22.483Z,4.25
2023-02-03T08:08:49.289Z,46.40
2023-02-03T08:11:15.925Z,5.32
2023-02-03T08:13:42.543Z,3.33
2023-02-03T08:16:09.153Z,4.85
2023-02-03T08:18:35.693Z,6.55
2023-02-03T08:21:04.117Z,2.05
2023-02-03T08:23:31.339Z,3.73
2023-02-03T08:25:57.895Z,2.58
2023-02-03T08:28:24.532Z,4.13
2023-02-03T08:30:51.261Z,2.83
2023-02-03T08:33:17.867Z,5.82
2023-02-03T08:35:50.425Z,4.95
2023-02-03T08:38:17.625Z,9.52
2023-02-03T08:40:44.307Z,7.38
2023-02-03T08:43:11.164Z,3.40
2023-02-03T08:45:40.217Z,5.97
2023-02-03T08:48:06.887Z,4.50
2023-02-03T08:50:33.454Z,5.88
2023-02-03T08:53:00.081Z,3.92
2023-02-03T08:55:26.668Z,2.85
2023-02-03T08:57:53.254Z,4.40
2023-02-03T09:00:20.417Z,1.92
2023-02-03T09:02:47.043Z,3.60
2023-02-03T09:05:13.944Z,4.32
2023-02-03T09:07:40.584Z,10.80
2023-02-03T09:10:07.464Z,6.38
2023-02-03T09:12:34.010Z,5.18
2023-02-03T09:15:00.585Z,4.72
2023-02-03T09:17:28.031Z,4.43
2023-02-03T09:19:54.677Z,5.95
2023-02-03T09:22:21.331Z,2.83
2023-02-03T09:24:50.448Z,2.25
2023-02-03T09:27:17.563Z,4.88
2023-02-03T09:29:44.269Z,13.55
2023-02-03T09:32:11.085Z,2.67
2023-02-03T09:34:39.814Z,4.80
2023-02-03T09:37:06.614Z,3.30
2023-02-03T09:39:33.153Z,1.92
2023-02-03T09:42:25.686Z,3.85
2023-02-03T09:45:12.877Z,2.63
2023-02-03T09:47:43.463Z,2.60
2023-02-03T09:50:21.145Z,5.80
2023-02-03T09:52:49.257Z,2.67
2023-02-03T09:55:42.664Z,2.25
2023-02-03T09:58:13.086Z,2.47
2023-02-03T10:00:48.472Z,2.60
2023-02-03T10:03:52.890Z,2.45
2023-02-03T10:06:28.763Z,3.40
2023-02-03T10:09:27.123Z,6.75
2023-02-03T10:12:18.713Z,4.40
2023-02-03T10:15:02.067Z,5.95
2023-02-03T10:17:37.959Z,2.95
2023-02-03T10:20:26.466Z,4.15
2023-02-03T10:23:04.501Z,3.60
2023-02-03T10:25:39.415Z,3.55
2023-02-03T10:28:19.121Z,2.63
2023-02-03T10:30:49.978Z,3.38
2023-02-03T10:33:19.082Z,5.28
2023-02-03T10:36:03.145Z,1.48
2023-02-03T10:38:32.515Z,4.90
2023-02-03T10:40:59.154Z,3.40
2023-02-03T10:43:47.241Z,4.95
2023-02-03T10:46:15.198Z,4.22
2023-02-03T10:48:42.428Z,3.78
2023-02-03T10:51:20.465Z,5.43
2023-02-03T10:53:47.790Z,4.55
2023-02-03T10:56:18.339Z,2.58
2023-02-03T10:58:51.670Z,5.22
2023-02-03T11:01:21.390Z,2.70
2023-02-03T11:03:55.184Z,3.15
2023-02-03T11:06:21.740Z,6.97
2023-02-03T11:08:49.947Z,4.95
2023-02-03T11:11:25.486Z,3.17
2023-02-03T11:14:00.758Z,4.13
2023-02-03T11:16:27.658Z,5.95
2023-02-03T11:18:59.928Z,6.18
2023-02-03T11:21:31.452Z,2.50
2023-02-03T11:24:05.962Z,4.20
2023-02-03T11:26:41.199Z,5.85
2023-02-03T11:29:18.068Z,3.25
2023-02-03T11:31:48.893Z,4.18
2023-02-03T11:34:37.956Z,3.83
2023-02-03T11:37:35.283Z,2.20
2023-02-03T11:40:07.967Z,5.40
2023-02-03T11:42:36.734Z,1.85
2023-02-03T11:45:18.543Z,1.98
2023-02-03T11:47:53.501Z,3.20
2023-02-03T11:50:33.499Z,3.45
2023-02-03T11:53:24.099Z,3.63
2023-02-03T11:56:18.312Z,1.88
2023-02-03T11:59:05.967Z,2.17
2023-02-03T12:02:11.217Z,0.98
2023-02-03T12:04:53.999Z,7.47
2023-02-03T12:07:47.246Z,4.60
2023-02-03T12:10:30.115Z,6.53
2023-02-03T12:13:20.958Z,4.70
2023-02-03T12:16:13.853Z,2.85
2023-02-03T12:18:48.493Z,5.28
2023-02-03T12:21:32.832Z,6.95
2023-02-03T12:24:07.016Z,5.63
2023-02-03T12:26:47.845Z,3.90
2023-02-03T12:29:24.638Z,2.85
2023-02-03T12:32:14.353Z,2.17
2023-02-03T12:35:12.253Z,2.92
2023-02-03T12:37:44.196Z,2.78
2023-02-03T12:40:20.347Z,1.67
2023-02-03T12:43:00.004Z,2.67
2023-02-03T12:45:32.073Z,4.57
2023-02-03T12:48:13.498Z,3.50
2023-02-03T12:50:45.953Z,8.07
2023-02-03T12:53:30.796Z,5.28
2023-02-03T12:56:17.151Z,3.38
2023-02-03T12:58:53.067Z,6.38
2023-02-03T13:01:24.288Z,1.65
2023-02-03T13:04:05.872Z,4.90
2023-02-03T13:06:54.461Z,4.30
2023-02-03T13:09:40.837Z,2.33
2023-02-03T13:12:22.392Z,3.70
2023-02-03T13:14:51.978Z,4.95
2023-02-03T13:17:26.744Z,2.65
2023-02-03T13:20:02.813Z,1.83
2023-02-03T13:22:29.398Z,3.78
2023-02-03T13:25:14.587Z,2.80
2023-02-03T13:27:58.283Z,3.35
2023-02-03T13:30:58.749Z,4.63
2023-02-03T13:33:43.998Z,3.53
2023-02-03T13:36:46.186Z,2.30
2023-02-03T13:39:25.774Z,8.95
2023-02-03T13:42:10.067Z,3.25
2023-02-03T13:44:39.693Z,2.42
2023-02-03T13:47:14.060Z,3.55
2023-02-03T13:49:46.328Z,2.78
2023-02-03T13:52:42.326Z,4.68
2023-02-03T13:55:33.112Z,5.55
2023-02-03T13:57:59.806Z,4.18
2023-02-03T14:00:44.752Z,2.85
2023-02-03T14:03:17.733Z,2.90
2023-02-03T14:05:50.643Z,5.18
2023-02-03T14:08:26.552Z,2.97
2023-02-03T14:11:30.559Z,2.50
2023-02-03T14:14:16.992Z,3.63
2023-02-03T14:16:49.236Z,1.55
2023-02-03T14:19:21.739Z,3.15
2023-02-03T14:21:52.280Z,11.63
2023-02-03T14:24:20.069Z,2.55
2023-02-03T14:26:52.012Z,3.47
2023-02-03T14:29:29.390Z,3.67
2023-02-03T14:32:02.989Z,4.88
2023-02-03T14:34:35.909Z,5.60
2023-02-03T14:37:24.839Z,1.40
2023-02-03T14:40:26.140Z,7.13
2023-02-03T14:43:15.708Z,40.17
2023-02-03T14:46:00.859Z,9.70
2023-02-03T14:48:42.658Z,2.38
2023-02-03T14:51:28.072Z,5.05
2023-02-03T14:54:13.203Z,5.78
2023-02-03T14:57:07.751Z,5.43
2023-02-03T14:59:54.467Z,5.65
2023-02-03T15:02:27.100Z,5.57
2023-02-03T15:05:13.812Z,4.70
2023-02-03T15:07:48.490Z,3.65
2023-02-03T15:10:18.722Z,6.85
2023-02-03T15:12:50.344Z,5.95
2023-02-03T15:15:21.905Z,6.57
2023-02-03T15:17:49.931Z,4.97
2023-02-03T15:20:38.658Z,7.15
2023-02-03T15:23:19.481Z,3.15
2023-02-03T15:25:46.239Z,5.47
2023-02-03T15:28:19.238Z,5.40
2023-02-03T15:30:49.327Z,3.50
2023-02-03T15:33:21.104Z,5.20
2023-02-03T15:35:51.692Z,5.68
2023-02-03T15:38:31.041Z,2.10
2023-02-03T15:43:40.335Z,3.38
2023-02-03T15:46:17.488Z,3.90
2023-02-03T15:48:52.691Z,4.47
2023-02-03T15:51:35.168Z,3.85
2023-02-03T15:54:30.421Z,3.83
2023-02-03T15:57:10.684Z,9.43
2023-02-03T15:59:54.351Z,2.95
2023-02-03T16:02:31.858Z,5.13
2023-02-03T16:05:02.882Z,4.68
2023-02-03T16:07:30.519Z,8.77
2023-02-03T16:09:59.169Z,5.60
2023-02-03T16:12:31.345Z,4.15
2023-02-03T16:14:59.548Z,8.07
2023-02-03T16:17:34.894Z,5.75
2023-02-03T16:20:10.528Z,7.15
2023-02-03T16:22:39.812Z,6.25
2023-02-03T16:25:24.378Z,5.30
2023-02-03T16:28:17.941Z,9.68
2023-02-03T16:31:16.859Z,7.43
2023-02-03T16:34:07.564Z,5.47
2023-02-03T16:36:57.934Z,7.47
2023-02-03T16:39:45.366Z,6.35
2023-02-03T16:42:38.815Z,7.38
2023-02-03T16:45:33.354Z,13.30
2023-02-03T16:48:18.874Z,6.85
2023-02-03T16:50:58.166Z,7.28
2023-02-03T16:53:31.164Z,8.68
2023-02-03T16:56:00.443Z,7.00
2023-02-03T16:58:27.571Z,6.95
2023-02-03T17:00:55.224Z,11.32
2023-02-03T17:03:24.068Z,9.68
2023-02-03T17:05:51.686Z,5.43
2023-02-03T17:08:20.676Z,5.50
2023-02-03T17:10:50.595Z,10.48
2023-02-03T17:13:19.208Z,10.32
2023-02-03T17:15:48.327Z,8.13
2023-02-03T17:18:15.410Z,6.82
2023-02-03T17:20:43.640Z,11.85
2023-02-03T17:23:10.691Z,11.93
2023-02-03T17:25:38.065Z,7.78
2023-02-03T17:28:05.872Z,5.50
2023-02-03T17:30:34.956Z,10.43
2023-02-03T17:33:02.915Z,8.85
2023-02-03T17:35:29.852Z,7.85
2023-02-03T17:37:56.716Z,7.47
2023-02-03T17:54:09.736Z,10.60
2023-02-03T17:56:36.421Z,12.43
2023-02-03T17:59:04.723Z,12.65
2023-02-03T18:01:32.191Z,13.95
2023-02-03T18:04:01.845Z,22.88
2023-02-03T18:06:30.637Z,13.52
2023-02-03T18:09:01.930Z,9.60
2023-02-03T18:11:30.249Z,12.95
2023-02-03T18:13:56.998Z,11.50
2023-02-03T18:16:27.800Z,10.70
2023-02-03T18:18:55.843Z,11.93
2023-02-03T18:21:24.249Z,9.73
2023-02-03T18:23:51.574Z,10.60
2023-02-03T18:26:20.552Z,12.38
2023-02-03T18:28:50.441Z,13.65
2023-02-03T18:31:17.699Z,11.00
2023-02-03T18:33:46.099Z,18.15
2023-02-03T18:36:14.358Z,12.73
2023-02-03T18:38:42.629Z,17.17
2023-02-03T18:41:18.876Z,13.38
2023-02-03T18:43:48.529Z,17.10
2023-02-03T18:46:27.648Z,15.93
2023-02-03T18:48:56.005Z,17.77
2023-02-03T18:51:23.719Z,11.63
2023-02-03T18:53:50.792Z,12.48
2023-02-03T18:56:20.288Z,20.10
2023-02-03T18:58:47.213Z,14.52
2023-02-03T19:01:26.718Z,18.77
2023-02-03T19:03:55.028Z,23.35
2023-02-03T19:06:22.624Z,17.10
2023-02-03T19:08:49.175Z,12.23
2023-02-03T19:11:15.730Z,18.88
2023-02-03T19:13:42.916Z,14.20
2023-02-03T19:16:12.734Z,13.95
2023-02-03T19:18:39.404Z,18.40
2023-02-03T19:21:06.134Z,14.70
2023-02-03T19:23:33.060Z,24.00
2023-02-03T19:25:59.622Z,23.70
2023-02-03T19:28:30.846Z,17.50
2023-02-03T19:31:08.404Z,15.55
2023-02-03T19:33:35.838Z,21.70
2023-02-03T19:36:02.935Z,15.43
2023-02-03T19:38:29.605Z,26.27
2023-02-03T19:40:56.712Z,14.30
2023-02-03T19:43:24.597Z,19.90
2023-02-03T19:45:51.703Z,15.32
2023-02-03T19:48:18.536Z,18.00
2023-02-03T19:50:49.289Z,18.17
2023-02-03T19:53:17.755Z,19.35
2023-02-03T19:55:45.561Z,13.17
2023-02-03T19:58:13.188Z,15.13
2023-02-03T20:00:40.265Z,14.35
2023-02-03T20:03:06.986Z,15.00
2023-02-03T20:05:34.376Z,17.15
2023-02-03T20:08:00.926Z,15.90
2023-02-03T20:10:28.400Z,12.40
2023-02-03T20:12:55.318Z,16.55
2023-02-03T20:15:22.288Z,14.65
2023-02-03T20:17:49.226Z,16.23
2023-02-03T20:20:19.156Z,15.05
2023-02-03T20:22:46.970Z,19.98
2023-02-03T20:25:13.552Z,16.30
2023-02-03T20:27:40.287Z,16.05
2023-02-03T20:30:07.526Z,19.85
2023-02-03T20:32:34.270Z,13.60
2023-02-03T20:35:00.961Z,17.50
2023-02-03T20:37:27.569Z,17.77
2023-02-03T20:39:54.364Z,17.73
2023-02-03T20:42:21.032Z,17.67
2023-02-03T20:44:47.546Z,14.80
2023-02-03T20:47:18.336Z,18.75
2023-02-03T20:49:45.625Z,15.23
2023-02-03T20:52:20.695Z,19.17
2023-02-03T20:54:47.848Z,14.30
2023-02-03T20:57:19.228Z,23.67
2023-02-03T20:59:46.450Z,22.08
2023-02-03T21:02:34.023Z,16.42
2023-02-03T21:05:02.336Z,14.55
2023-02-03T21:07:30.671Z,11.83
2023-02-03T21:09:59.348Z,13.02
2023-02-03T21:12:28.043Z,20.63
2023-02-03T21:14:55.159Z,19.30
2023-02-03T21:17:26.866Z,19.42
2023-02-03T21:19:54.858Z,14.77
2023-02-03T21:22:26.857Z,13.93
2023-02-03T21:24:56.848Z,10.57
2023-02-03T21:27:28.557Z,18.50
2023-02-03T21:29:57.430Z,12.00
2023-02-03T21:32:36.347Z,19.77
2023-02-03T21:35:05.330Z,21.77
2023-02-03T21:37:40.624Z,20.85
2023-02-03T21:40:34.743Z,25.65
2023-02-03T21:43:05.003Z,19.23
2023-02-03T21:45:38.047Z,30.58
2023-02-03T21:48:28.690Z,17.38
2023-02-03T21:50:59.429Z,21.77
2023-02-03T21:53:28.932Z,19.42
2023-02-03T21:55:55.700Z,19.73
2023-02-03T21:58:25.353Z,12.75
2023-02-03T22:00:57.009Z,18.60
2023-02-03T22:03:40.453Z,19.75
2023-02-03T22:06:15.711Z,22.00
2023-02-03T22:08:47.625Z,20.55
2023-02-03T22:11:15.726Z,25.48
2023-02-03T22:13:42.978Z,19.75
2023-02-03T22:16:10.284Z,19.65
2023-02-03T22:18:37.016Z,17.60
2023-02-03T22:21:03.679Z,29.42
2023-02-03T22:23:30.290Z,20.17
2023-02-03T22:25:57.041Z,20.20
2023-02-03T22:28:23.549Z,21.13
2023-02-03T22:30:50.181Z,15.93
2023-02-03T22:33:17.108Z,14.65
2023-02-03T22:35:43.930Z,14.32
2023-02-03T22:38:10.516Z,17.95
2023-02-03T22:40:37.287Z,15.38
2023-02-03T22:43:04.023Z,14.98
2023-02-03T22:45:30.593Z,11.73
2023-02-03T22:47:59.954Z,19.25
2023-02-03T22:50:35.378Z,18.60
2023-02-03T22:53:04.016Z,16.08
2023-02-03T22:55:31.193Z,17.42
2023-02-03T22:57:58.379Z,12.30
2023-02-03T23:00:25.662Z,14.77
2023-02-03T23:02:52.652Z,17.50
2023-02-03T23:05:19.849Z,15.38
2023-02-03T23:07:47.176Z,15.60
2023-02-03T23:10:20.101Z,15.82
2023-02-03T23:12:46.995Z,11.23
2023-02-03T23:15:14.131Z,17.90
2023-02-03T23:17:41.084Z,16.25
2023-02-03T23:20:09.189Z,16.50
2023-02-03T23:22:35.713Z,12.82
2023-02-03T23:25:02.599Z,12.88
2023-02-03T23:27:29.466Z,17.65
2023-02-03T23:29:56.055Z,11.18
2023-02-03T23:32:22.854Z,15.00
2023-02-03T23:35:15.476Z,18.95
2023-02-03T23:37:42.032Z,21.80
2023-02-03T23:40:09.608Z,16.52
2023-02-03T23:42:36.223Z,14.68
2023-02-03T23:45:07.887Z,18.10
2023-02-03T23:47:35.179Z,19.77
2023-02-03T23:50:01.766Z,13.65
2023-02-03T23:52:35.259Z,18.63
2023-02-03T23:55:23.329Z,13.63
2023-02-03T23:57:50.530Z,11.35
